sensor_id;sensor_type;location;lat;lon;timestamp;pressure;altitude;pressure_sealevel;temperature;humidity
46506;BME280;32220;49.808;9.968;2023-04-23T00:02:11;98129.38;;;16.61;57.80
46506;BME280;32220;49.808;9.968;2023-04-23T00:04:48;98137.00;;;16.65;57.57
46506;BME280;32220;49.808;9.968;2023-04-23T00:07:18;98141.75;;;16.62;57.43
46506;BME280;32220;49.808;9.968;2023-04-23T00:09:46;98123.41;;;16.49;57.29
46506;BME280;32220;49.808;9.968;2023-04-23T00:12:14;98144.88;;;16.57;57.39
46506;BME280;32220;49.808;9.968;2023-04-23T00:14:44;98138.31;;;16.51;57.42
46506;BME280;32220;49.808;9.968;2023-04-23T00:17:11;98130.44;;;16.50;58.17
46506;BME280;32220;49.808;9.968;2023-04-23T00:19:39;98135.38;;;16.45;57.83
46506;BME280;32220;49.808;9.968;2023-04-23T00:22:07;98134.53;;;16.44;57.70
46506;BME280;32220;49.808;9.968;2023-04-23T00:24:34;98127.38;;;16.45;57.62
46506;BME280;32220;49.808;9.968;2023-04-23T00:27:04;98131.19;;;16.42;57.73
46506;BME280;32220;49.808;9.968;2023-04-23T00:29:32;98133.72;;;16.44;57.57
46506;BME280;32220;49.808;9.968;2023-04-23T00:32:01;98128.38;;;16.44;57.33
46506;BME280;32220;49.808;9.968;2023-04-23T00:34:29;98133.72;;;16.44;57.23
46506;BME280;32220;49.808;9.968;2023-04-23T00:36:57;98138.06;;;16.45;57.31
46506;BME280;32220;49.808;9.968;2023-04-23T00:39:25;98143.56;;;16.43;57.25
46506;BME280;32220;49.808;9.968;2023-04-23T00:41:52;98142.72;;;16.43;56.94
46506;BME280;32220;49.808;9.968;2023-04-23T00:44:20;98146.41;;;16.42;57.41
46506;BME280;32220;49.808;9.968;2023-04-23T00:46:48;98131.94;;;16.35;57.58
46506;BME280;32220;49.808;9.968;2023-04-23T00:49:18;98140.22;;;16.41;58.04
46506;BME280;32220;49.808;9.968;2023-04-23T00:51:47;98143.31;;;16.37;57.97
46506;BME280;32220;49.808;9.968;2023-04-23T00:54:14;98146.41;;;16.42;58.06
46506;BME280;32220;49.808;9.968;2023-04-23T00:56:42;98144.41;;;16.44;58.78
46506;BME280;32220;49.808;9.968;2023-04-23T00:59:10;98148.75;;;16.45;58.39
46506;BME280;32220;49.808;9.968;2023-04-23T01:01:37;98143.25;;;16.46;58.26
46506;BME280;32220;49.808;9.968;2023-04-23T01:04:06;98154.50;;;16.50;58.09
46506;BME280;32220;49.808;9.968;2023-04-23T01:06:37;98144.66;;;16.50;58.34
46506;BME280;32220;49.808;9.968;2023-04-23T01:09:05;98153.66;;;16.49;57.69
46506;BME280;32220;49.808;9.968;2023-04-23T01:11:36;98148.59;;;16.46;57.94
46506;BME280;32220;49.808;9.968;2023-04-23T01:14:05;98141.28;;;16.48;57.83
46506;BME280;32220;49.808;9.968;2023-04-23T01:16:33;98104.03;;;16.20;58.10
46506;BME280;32220;49.808;9.968;2023-04-23T01:19:01;98142.41;;;16.46;58.47
46506;BME280;32220;49.808;9.968;2023-04-23T01:21:30;98150.56;;;16.44;58.42
46506;BME280;32220;49.808;9.968;2023-04-23T01:24:00;98089.50;;;16.04;58.92
46506;BME280;32220;49.808;9.968;2023-04-23T01:26:27;98132.91;;;16.34;59.48
46506;BME280;32220;49.808;9.968;2023-04-23T01:28:55;98135.66;;;16.24;60.00
46506;BME280;32220;49.808;9.968;2023-04-23T01:31:24;98132.06;;;16.15;60.52
46506;BME280;32220;49.808;9.968;2023-04-23T01:33:52;98136.97;;;16.10;60.69
46506;BME280;32220;49.808;9.968;2023-04-23T01:36:20;98125.50;;;16.00;60.32
46506;BME280;32220;49.808;9.968;2023-04-23T01:38:51;98144.00;;;16.11;60.50
46506;BME280;32220;49.808;9.968;2023-04-23T01:41:20;98133.78;;;16.07;61.78
46506;BME280;32220;49.808;9.968;2023-04-23T01:43:48;98126.78;;;15.96;62.85
46506;BME280;32220;49.808;9.968;2023-04-23T01:46:17;98142.56;;;15.90;62.84
46506;BME280;32220;49.808;9.968;2023-04-23T01:48:45;98127.00;;;15.75;63.23
46506;BME280;32220;49.808;9.968;2023-04-23T01:51:12;98136.72;;;15.76;64.87
46506;BME280;32220;49.808;9.968;2023-04-23T01:53:40;98146.44;;;15.68;65.05
46506;BME280;32220;49.808;9.968;2023-04-23T01:56:08;98148.00;;;15.61;65.05
46506;BME280;32220;49.808;9.968;2023-04-23T01:58:37;98133.53;;;15.54;67.83
46506;BME280;32220;49.808;9.968;2023-04-23T02:01:05;98121.19;;;15.33;68.23
46506;BME280;32220;49.808;9.968;2023-04-23T02:03:32;98117.72;;;15.23;68.26
46506;BME280;32220;49.808;9.968;2023-04-23T02:06:00;98136.53;;;15.31;68.51
46506;BME280;32220;49.808;9.968;2023-04-23T02:08:30;98136.94;;;15.27;68.69
46506;BME280;32220;49.808;9.968;2023-04-23T02:10:57;98141.72;;;15.23;68.63
46506;BME280;32220;49.808;9.968;2023-04-23T02:13:25;98129.94;;;15.16;71.44
46506;BME280;32220;49.808;9.968;2023-04-23T02:15:54;98136.13;;;15.07;71.83
46506;BME280;32220;49.808;9.968;2023-04-23T02:18:22;98143.69;;;15.02;71.96
46506;BME280;32220;49.808;9.968;2023-04-23T02:20:49;98149.03;;;15.02;71.35
46506;BME280;32220;49.808;9.968;2023-04-23T02:23:17;98150.59;;;15.04;72.44
46506;BME280;32220;49.808;9.968;2023-04-23T02:25:44;98149.75;;;15.04;72.42
46506;BME280;32220;49.808;9.968;2023-04-23T02:28:12;98140.91;;;14.94;72.03
46506;BME280;32220;49.808;9.968;2023-04-23T02:30:40;98150.44;;;15.06;71.77
46506;BME280;32220;49.808;9.968;2023-04-23T02:33:13;98135.84;;;14.91;71.42
46506;BME280;32220;49.808;9.968;2023-04-23T02:35:41;98158.00;;;15.01;71.51
46506;BME280;32220;49.808;9.968;2023-04-23T02:38:08;98139.22;;;14.93;70.84
46506;BME280;32220;49.808;9.968;2023-04-23T02:40:36;98142.88;;;14.92;70.73
46506;BME280;32220;49.808;9.968;2023-04-23T02:43:03;98134.16;;;14.90;71.99
46506;BME280;32220;49.808;9.968;2023-04-23T02:45:31;98139.78;;;14.87;72.64
46506;BME280;32220;49.808;9.968;2023-04-23T02:47:59;98155.22;;;14.93;73.87
46506;BME280;32220;49.808;9.968;2023-04-23T02:50:28;98162.78;;;14.88;73.61
46506;BME280;32220;49.808;9.968;2023-04-23T02:52:55;98162.06;;;14.86;74.08
46506;BME280;32220;49.808;9.968;2023-04-23T02:55:23;98166.69;;;14.84;73.82
46506;BME280;32220;49.808;9.968;2023-04-23T02:57:51;98159.72;;;14.83;74.58
46506;BME280;32220;49.808;9.968;2023-04-23T03:00:18;98172.34;;;14.81;75.12
46506;BME280;32220;49.808;9.968;2023-04-23T03:02:46;98165.31;;;14.80;74.66
46506;BME280;32220;49.808;9.968;2023-04-23T03:05:14;98163.63;;;14.79;75.14
46506;BME280;32220;49.808;9.968;2023-04-23T03:07:43;98163.63;;;14.79;74.75
46506;BME280;32220;49.808;9.968;2023-04-23T03:10:11;98160.38;;;14.75;75.04
46506;BME280;32220;49.808;9.968;2023-04-23T03:12:39;98151.41;;;14.66;75.20
46506;BME280;32220;49.808;9.968;2023-04-23T03:15:06;98172.03;;;14.74;74.60
46506;BME280;32220;49.808;9.968;2023-04-23T03:17:35;98167.41;;;14.76;75.04
46506;BME280;32220;49.808;9.968;2023-04-23T03:20:07;98172.34;;;14.81;75.63
46506;BME280;32220;49.808;9.968;2023-04-23T03:22:37;98170.38;;;14.83;74.73
46506;BME280;32220;49.808;9.968;2023-04-23T03:25:07;98175.53;;;14.84;75.20
46506;BME280;32220;49.808;9.968;2023-04-23T03:27:35;98173.59;;;14.86;74.89
46506;BME280;32220;49.808;9.968;2023-04-23T03:30:03;98170.78;;;14.88;75.05
46506;BME280;32220;49.808;9.968;2023-04-23T03:32:30;98173.72;;;14.85;75.19
46506;BME280;32220;49.808;9.968;2023-04-23T03:34:58;98164.75;;;14.76;75.33
46506;BME280;32220;49.808;9.968;2023-04-23T03:37:26;98173.44;;;14.78;75.21
46506;BME280;32220;49.808;9.968;2023-04-23T03:39:53;98178.50;;;14.81;75.16
46506;BME280;32220;49.808;9.968;2023-04-23T03:42:23;98176.69;;;14.82;74.67
46506;BME280;32220;49.808;9.968;2023-04-23T03:44:53;98155.50;;;14.70;75.07
46506;BME280;32220;49.808;9.968;2023-04-23T03:47:20;98177.09;;;14.87;74.60
46506;BME280;32220;49.808;9.968;2023-04-23T03:49:48;98181.19;;;14.91;74.19
46506;BME280;32220;49.808;9.968;2023-04-23T03:52:16;98188.91;;;14.94;73.94
46506;BME280;32220;49.808;9.968;2023-04-23T03:54:44;98175.41;;;14.86;74.06
46506;BME280;32220;49.808;9.968;2023-04-23T03:57:15;98181.19;;;14.91;74.26
46506;BME280;32220;49.808;9.968;2023-04-23T04:00:01;98171.75;;;14.87;74.40
46506;BME280;32220;49.808;9.968;2023-04-23T04:02:40;98194.78;;;14.97;74.03
46506;BME280;32220;49.808;9.968;2023-04-23T04:05:08;98197.31;;;14.99;73.94
46506;BME280;32220;49.808;9.968;2023-04-23T04:07:36;98196.31;;;15.00;74.40
46506;BME280;32220;49.808;9.968;2023-04-23T04:10:04;98192.28;;;14.96;73.99
46506;BME280;32220;49.808;9.968;2023-04-23T04:12:32;98189.59;;;14.96;74.41
46506;BME280;32220;49.808;9.968;2023-04-23T04:15:03;98191.25;;;14.97;74.49
46506;BME280;32220;49.808;9.968;2023-04-23T04:17:31;98194.94;;;14.96;74.46
46506;BME280;32220;49.808;9.968;2023-04-23T04:19:58;98189.31;;;14.99;74.40
46506;BME280;32220;49.808;9.968;2023-04-23T04:22:26;98194.63;;;14.99;73.92
46506;BME280;32220;49.808;9.968;2023-04-23T04:24:54;98189.75;;;15.04;74.17
46506;BME280;32220;49.808;9.968;2023-04-23T04:27:22;98196.75;;;15.05;73.71
46506;BME280;32220;49.808;9.968;2023-04-23T04:29:50;98192.41;;;15.04;73.96
46506;BME280;32220;49.808;9.968;2023-04-23T04:32:19;98190.72;;;15.03;73.77
46506;BME280;32220;49.808;9.968;2023-04-23T04:34:48;98188.63;;;15.06;73.54
46506;BME280;32220;49.808;9.968;2023-04-23T04:37:16;98188.50;;;15.08;73.73
46506;BME280;32220;49.808;9.968;2023-04-23T04:39:43;98189.47;;;15.07;73.36
46506;BME280;32220;49.808;9.968;2023-04-23T04:42:11;98186.63;;;15.08;73.68
46506;BME280;32220;49.808;9.968;2023-04-23T04:44:39;98196.50;;;15.08;73.69
46506;BME280;32220;49.808;9.968;2023-04-23T04:47:08;98194.81;;;15.07;73.09
46506;BME280;32220;49.808;9.968;2023-04-23T04:49:37;98186.94;;;14.96;73.05
46506;BME280;32220;49.808;9.968;2023-04-23T04:52:05;98204.63;;;15.06;72.71
46506;BME280;32220;49.808;9.968;2023-04-23T04:54:33;98206.44;;;15.06;72.62
46506;BME280;32220;49.808;9.968;2023-04-23T04:57:01;98201.38;;;15.03;72.72
46506;BME280;32220;49.808;9.968;2023-04-23T04:59:28;98198.16;;;15.09;72.62
46506;BME280;32220;49.808;9.968;2023-04-23T05:01:56;98192.28;;;15.05;71.99
46506;BME280;32220;49.808;9.968;2023-04-23T05:04:24;98207.16;;;15.18;71.99
46506;BME280;32220;49.808;9.968;2023-04-23T05:06:53;98200.97;;;15.17;71.24
46506;BME280;32220;49.808;9.968;2023-04-23T05:09:21;98206.03;;;15.20;71.09
46506;BME280;32220;49.808;9.968;2023-04-23T05:11:49;98197.75;;;15.14;71.02
46506;BME280;32220;49.808;9.968;2023-04-23T05:14:16;98219.50;;;15.28;70.92
46506;BME280;32220;49.808;9.968;2023-04-23T05:16:44;98229.06;;;15.31;70.74
46506;BME280;32220;49.808;9.968;2023-04-23T05:19:12;98230.75;;;15.32;70.72
46506;BME280;32220;49.808;9.968;2023-04-23T05:21:39;98229.06;;;15.31;71.09
46506;BME280;32220;49.808;9.968;2023-04-23T05:24:09;98228.91;;;15.32;71.00
46506;BME280;32220;49.808;9.968;2023-04-23T05:26:36;98214.44;;;15.25;70.65
46506;BME280;32220;49.808;9.968;2023-04-23T05:29:04;98231.28;;;15.35;71.19
46506;BME280;32220;49.808;9.968;2023-04-23T05:31:32;98233.81;;;15.37;71.01
46506;BME280;32220;49.808;9.968;2023-04-23T05:33:59;98238.88;;;15.40;70.83
46506;BME280;32220;49.808;9.968;2023-04-23T05:36:27;98232.41;;;15.42;71.09
46506;BME280;32220;49.808;9.968;2023-04-23T05:38:54;98232.41;;;15.42;71.23
46506;BME280;32220;49.808;9.968;2023-04-23T05:41:24;98249.81;;;15.46;71.26
46506;BME280;32220;49.808;9.968;2023-04-23T05:43:51;98233.81;;;15.46;71.12
46506;BME280;32220;49.808;9.968;2023-04-23T05:46:19;98249.03;;;15.56;70.90
46506;BME280;32220;49.808;9.968;2023-04-23T05:48:47;98247.03;;;15.67;71.19
46506;BME280;32220;49.808;9.968;2023-04-23T05:51:14;98252.63;;;15.74;70.90
46506;BME280;32220;49.808;9.968;2023-04-23T05:53:42;98244.91;;;15.80;70.82
46506;BME280;32220;49.808;9.968;2023-04-23T05:56:09;98247.97;;;15.86;70.59
46506;BME280;32220;49.808;9.968;2023-04-23T05:58:39;98254.16;;;15.86;70.30
46506;BME280;32220;49.808;9.968;2023-04-23T06:01:06;98250.09;;;15.82;70.30
46506;BME280;32220;49.808;9.968;2023-04-23T06:03:34;98225.41;;;15.61;70.61
46506;BME280;32220;49.808;9.968;2023-04-23T06:06:02;98256.28;;;15.73;71.05
46506;BME280;32220;49.808;9.968;2023-04-23T06:08:30;98209.09;;;15.44;70.44
46506;BME280;32220;49.808;9.968;2023-04-23T06:10:57;98211.63;;;15.36;70.56
46506;BME280;32220;49.808;9.968;2023-04-23T06:13:27;98260.25;;;15.69;70.14
46506;BME280;32220;49.808;9.968;2023-04-23T06:15:57;98258.25;;;15.71;70.33
46506;BME280;32220;49.808;9.968;2023-04-23T06:18:25;98260.50;;;15.75;69.92
46506;BME280;32220;49.808;9.968;2023-04-23T06:20:52;98261.16;;;15.97;70.19
46506;BME280;32220;49.808;9.968;2023-04-23T06:23:25;98266.84;;;16.31;69.37
46506;BME280;32220;49.808;9.968;2023-04-23T06:25:52;98242.00;;;16.48;68.40
46506;BME280;32220;49.808;9.968;2023-04-23T06:28:20;98272.22;;;17.13;67.08
46506;BME280;32220;49.808;9.968;2023-04-23T06:31:21;98249.34;;;17.54;65.65
46506;BME280;32220;49.808;9.968;2023-04-23T06:33:49;98276.13;;;17.89;63.66
46506;BME280;32220;49.808;9.968;2023-04-23T06:36:17;98277.75;;;18.08;62.86
46506;BME280;32220;49.808;9.968;2023-04-23T06:38:45;98221.22;;;17.93;61.19
46506;BME280;32220;49.808;9.968;2023-04-23T06:41:12;98260.19;;;18.40;61.05
46506;BME280;32220;49.808;9.968;2023-04-23T06:43:40;98284.88;;;18.77;59.81
46506;BME280;32220;49.808;9.968;2023-04-23T06:46:14;98259.09;;;18.92;58.91
46506;BME280;32220;49.808;9.968;2023-04-23T06:48:43;98277.13;;;19.24;58.11
46506;BME280;32220;49.808;9.968;2023-04-23T06:51:11;98285.88;;;19.34;57.16
46506;BME280;32220;49.808;9.968;2023-04-23T06:53:39;98287.25;;;19.38;56.05
46506;BME280;32220;49.808;9.968;2023-04-23T06:56:07;98303.19;;;19.40;54.40
46506;BME280;32220;49.808;9.968;2023-04-23T06:58:34;98295.28;;;19.38;54.80
46506;BME280;32220;49.808;9.968;2023-04-23T07:01:12;98277.81;;;19.34;54.83
46506;BME280;32220;49.808;9.968;2023-04-23T07:03:39;98305.88;;;19.48;53.74
46506;BME280;32220;49.808;9.968;2023-04-23T07:06:11;98290.81;;;19.63;54.58
46506;BME280;32220;49.808;9.968;2023-04-23T07:08:38;98290.84;;;19.88;53.99
46506;BME280;32220;49.808;9.968;2023-04-23T07:11:06;98300.06;;;20.01;52.47
46506;BME280;32220;49.808;9.968;2023-04-23T07:13:37;98305.25;;;20.11;52.08
46506;BME280;32220;49.808;9.968;2023-04-23T07:16:05;98309.78;;;20.19;51.28
46506;BME280;32220;49.808;9.968;2023-04-23T07:18:33;98309.59;;;20.28;51.03
46506;BME280;32220;49.808;9.968;2023-04-23T07:21:01;98297.16;;;20.43;51.00
46506;BME280;32220;49.808;9.968;2023-04-23T07:23:30;98310.63;;;20.52;49.73
46506;BME280;32220;49.808;9.968;2023-04-23T07:25:57;98308.63;;;20.37;49.79
46506;BME280;32220;49.808;9.968;2023-04-23T07:28:25;98298.38;;;20.25;50.15
46506;BME280;32220;49.808;9.968;2023-04-23T07:30:53;98303.56;;;20.34;50.50
46506;BME280;32220;49.808;9.968;2023-04-23T07:33:21;98307.91;;;20.60;50.15
46506;BME280;32220;49.808;9.968;2023-04-23T07:35:48;98301.81;;;20.66;50.04
46506;BME280;32220;49.808;9.968;2023-04-23T07:38:16;98304.91;;;20.94;48.59
46506;BME280;32220;49.808;9.968;2023-04-23T07:40:46;98309.44;;;21.01;49.01
46506;BME280;32220;49.808;9.968;2023-04-23T07:43:13;98314.34;;;21.29;47.94
46506;BME280;32220;49.808;9.968;2023-04-23T07:45:41;98325.31;;;21.58;46.76
46506;BME280;32220;49.808;9.968;2023-04-23T07:48:09;98315.94;;;21.46;47.13
46506;BME280;32220;49.808;9.968;2023-04-23T07:50:37;98312.34;;;21.54;46.87
46506;BME280;32220;49.808;9.968;2023-04-23T07:53:05;98308.69;;;22.67;45.05
46506;BME280;32220;49.808;9.968;2023-04-23T07:55:32;98323.09;;;22.45;45.02
46506;BME280;32220;49.808;9.968;2023-04-23T07:58:01;98330.59;;;22.20;44.83
46506;BME280;32220;49.808;9.968;2023-04-23T08:00:29;98324.72;;;21.94;45.47
46506;BME280;32220;49.808;9.968;2023-04-23T08:02:57;98319.44;;;21.77;45.75
46506;BME280;32220;49.808;9.968;2023-04-23T08:05:24;98317.53;;;21.63;46.10
46506;BME280;32220;49.808;9.968;2023-04-23T08:07:52;98316.22;;;21.59;46.26
46506;BME280;32220;49.808;9.968;2023-04-23T08:10:20;98308.47;;;21.56;46.09
46506;BME280;32220;49.808;9.968;2023-04-23T08:12:47;98298.59;;;21.71;46.40
46506;BME280;32220;49.808;9.968;2023-04-23T08:15:16;98303.47;;;22.36;45.88
46506;BME280;32220;49.808;9.968;2023-04-23T08:17:44;98313.69;;;22.41;45.57
46506;BME280;32220;49.808;9.968;2023-04-23T08:20:12;98286.72;;;22.03;45.52
46506;BME280;32220;49.808;9.968;2023-04-23T08:22:39;98310.91;;;22.34;44.29
46506;BME280;32220;49.808;9.968;2023-04-23T08:25:08;98310.34;;;22.24;44.20
46506;BME280;32220;49.808;9.968;2023-04-23T08:27:36;98307.34;;;22.19;44.22
46506;BME280;32220;49.808;9.968;2023-04-23T08:30:04;98298.47;;;22.10;44.78
46506;BME280;32220;49.808;9.968;2023-04-23T08:32:35;98293.09;;;21.88;44.41
46506;BME280;32220;49.808;9.968;2023-04-23T08:35:03;98294.31;;;21.62;44.55
46506;BME280;32220;49.808;9.968;2023-04-23T08:37:30;98294.06;;;21.49;44.88
46506;BME280;32220;49.808;9.968;2023-04-23T08:39:58;98292.13;;;23.00;43.50
46506;BME280;32220;49.808;9.968;2023-04-23T08:42:36;98314.09;;;24.26;40.67
46506;BME280;32220;49.808;9.968;2023-04-23T08:45:05;98301.59;;;24.04;41.05
46506;BME280;32220;49.808;9.968;2023-04-23T08:47:36;98328.47;;;25.64;38.33
46506;BME280;32220;49.808;9.968;2023-04-23T08:50:10;98311.31;;;27.09;37.04
46506;BME280;32220;49.808;9.968;2023-04-23T08:52:40;98329.31;;;27.99;34.92
46506;BME280;32220;49.808;9.968;2023-04-23T08:55:09;98343.47;;;29.07;32.83
46506;BME280;32220;49.808;9.968;2023-04-23T08:57:38;98345.41;;;29.43;32.77
46506;BME280;32220;49.808;9.968;2023-04-23T09:00:07;98347.91;;;30.34;30.72
46506;BME280;32220;49.808;9.968;2023-04-23T09:02:39;98338.41;;;31.42;30.26
46506;BME280;32220;49.808;9.968;2023-04-23T09:05:08;98355.81;;;32.83;27.63
46506;BME280;32220;49.808;9.968;2023-04-23T09:07:36;98370.22;;;32.28;26.81
46506;BME280;32220;49.808;9.968;2023-04-23T09:10:05;98358.06;;;30.92;27.56
46506;BME280;32220;49.808;9.968;2023-04-23T09:12:35;98355.91;;;31.29;28.02
46506;BME280;32220;49.808;9.968;2023-04-23T09:15:02;98357.06;;;30.40;28.31
46506;BME280;32220;49.808;9.968;2023-04-23T09:17:39;98351.91;;;30.20;28.65
46506;BME280;32220;49.808;9.968;2023-04-23T09:20:07;98325.84;;;31.58;27.11
46506;BME280;32220;49.808;9.968;2023-04-23T09:22:40;98347.44;;;33.72;25.88
46506;BME280;32220;49.808;9.968;2023-04-23T09:25:09;98369.34;;;34.42;23.67
46506;BME280;32220;49.808;9.968;2023-04-23T09:27:38;98353.25;;;33.32;24.85
46506;BME280;32220;49.808;9.968;2023-04-23T09:30:09;98345.47;;;31.66;25.09
46506;BME280;32220;49.808;9.968;2023-04-23T09:32:40;98336.78;;;30.94;26.39
46506;BME280;32220;49.808;9.968;2023-04-23T09:35:10;98329.94;;;29.85;28.15
46506;BME280;32220;49.808;9.968;2023-04-23T09:37:41;98299.34;;;28.99;29.58
46506;BME280;32220;49.808;9.968;2023-04-23T09:40:12;98304.34;;;29.38;29.56
46506;BME280;32220;49.808;9.968;2023-04-23T09:42:46;98298.22;;;28.63;29.75
46506;BME280;32220;49.808;9.968;2023-04-23T09:45:15;98266.97;;;27.60;31.01
46506;BME280;32220;49.808;9.968;2023-04-23T09:47:50;98261.66;;;26.75;32.66
46506;BME280;32220;49.808;9.968;2023-04-23T09:50:18;98278.88;;;26.43;33.91
46506;BME280;32220;49.808;9.968;2023-04-23T09:52:53;98266.72;;;25.99;34.14
46506;BME280;32220;49.808;9.968;2023-04-23T09:55:27;98272.47;;;25.50;34.69
46506;BME280;32220;49.808;9.968;2023-04-23T09:57:56;98253.09;;;25.47;35.46
46506;BME280;32220;49.808;9.968;2023-04-23T10:00:24;98258.31;;;25.55;35.21
46506;BME280;32220;49.808;9.968;2023-04-23T10:02:58;98191.31;;;25.35;35.40
46506;BME280;32220;49.808;9.968;2023-04-23T10:05:26;98238.38;;;26.08;35.03
46506;BME280;32220;49.808;9.968;2023-04-23T10:07:54;98258.94;;;26.95;33.32
46506;BME280;32220;49.808;9.968;2023-04-23T10:10:24;98253.56;;;27.65;34.22
46506;BME280;32220;49.808;9.968;2023-04-23T10:12:52;98256.78;;;28.79;31.72
46506;BME280;32220;49.808;9.968;2023-04-23T10:15:22;98271.75;;;29.25;30.65
46506;BME280;32220;49.808;9.968;2023-04-23T10:17:52;98261.84;;;29.12;30.21
46506;BME280;32220;49.808;9.968;2023-04-23T10:20:22;98248.16;;;29.01;31.01
46506;BME280;32220;49.808;9.968;2023-04-23T10:22:52;98247.47;;;28.87;30.42
46506;BME280;32220;49.808;9.968;2023-04-23T10:25:22;98261.44;;;28.72;30.07
46506;BME280;32220;49.808;9.968;2023-04-23T10:27:51;98266.75;;;29.22;30.76
46506;BME280;32220;49.808;9.968;2023-04-23T10:30:19;98262.97;;;30.24;28.40
46506;BME280;32220;49.808;9.968;2023-04-23T10:32:48;98272.22;;;31.45;27.02
46506;BME280;32220;49.808;9.968;2023-04-23T10:35:15;98275.03;;;32.07;25.86
46506;BME280;32220;49.808;9.968;2023-04-23T10:37:46;98276.22;;;32.44;25.10
46506;BME280;32220;49.808;9.968;2023-04-23T10:40:18;98258.38;;;32.97;25.31
46506;BME280;32220;49.808;9.968;2023-04-23T10:42:47;98285.22;;;33.82;24.37
46506;BME280;32220;49.808;9.968;2023-04-23T10:45:16;98292.66;;;35.30;22.56
46506;BME280;32220;49.808;9.968;2023-04-23T10:47:45;98291.53;;;36.54;21.36
46506;BME280;32220;49.808;9.968;2023-04-23T10:50:22;98280.53;;;37.49;20.00
46506;BME280;32220;49.808;9.968;2023-04-23T10:52:53;98291.50;;;38.14;20.02
46506;BME280;32220;49.808;9.968;2023-04-23T10:55:23;98274.25;;;39.13;18.88
46506;BME280;32220;49.808;9.968;2023-04-23T10:57:58;98283.94;;;39.59;17.72
46506;BME280;32220;49.808;9.968;2023-04-23T11:00:27;98291.75;;;39.09;17.86
46506;BME280;32220;49.808;9.968;2023-04-23T11:02:55;98278.09;;;39.41;18.60
46506;BME280;32220;49.808;9.968;2023-04-23T11:05:22;98268.66;;;39.42;18.21
46506;BME280;32220;49.808;9.968;2023-04-23T11:08:03;98273.81;;;39.25;18.17
46506;BME280;32220;49.808;9.968;2023-04-23T11:10:31;98268.06;;;38.40;18.75
46506;BME280;32220;49.808;9.968;2023-04-23T11:13:18;98261.72;;;36.77;18.80
46506;BME280;32220;49.808;9.968;2023-04-23T11:15:46;98244.50;;;35.38;20.28
46506;BME280;32220;49.808;9.968;2023-04-23T11:18:14;98234.44;;;36.14;20.63
46506;BME280;32220;49.808;9.968;2023-04-23T11:20:41;98258.06;;;37.01;19.07
46506;BME280;32220;49.808;9.968;2023-04-23T11:23:28;98237.91;;;37.06;19.36
46506;BME280;32220;49.808;9.968;2023-04-23T11:25:58;98231.34;;;36.82;19.58
46506;BME280;32220;49.808;9.968;2023-04-23T11:28:27;98245.75;;;36.43;19.19
46506;BME280;32220;49.808;9.968;2023-04-23T11:30:56;98239.31;;;36.93;18.68
46506;BME280;32220;49.808;9.968;2023-04-23T11:33:24;98238.13;;;37.74;17.54
46506;BME280;32220;49.808;9.968;2023-04-23T11:35:52;98241.94;;;37.83;17.85
46506;BME280;32220;49.808;9.968;2023-04-23T11:38:21;98248.53;;;37.87;17.98
46506;BME280;32220;49.808;9.968;2023-04-23T11:40:50;98232.25;;;37.36;18.72
46506;BME280;32220;49.808;9.968;2023-04-23T11:43:18;98226.28;;;37.19;19.08
46506;BME280;32220;49.808;9.968;2023-04-23T11:45:47;98220.59;;;36.60;19.02
46506;BME280;32220;49.808;9.968;2023-04-23T11:48:16;98217.25;;;35.51;20.34
46506;BME280;32220;49.808;9.968;2023-04-23T11:50:44;98186.13;;;33.94;21.31
46506;BME280;32220;49.808;9.968;2023-04-23T11:53:12;98193.06;;;33.21;22.02
46506;BME280;32220;49.808;9.968;2023-04-23T11:55:41;98192.16;;;33.64;22.39
46506;BME280;32220;49.808;9.968;2023-04-23T11:58:11;98194.56;;;33.82;22.35
46506;BME280;32220;49.808;9.968;2023-04-23T12:00:38;98180.31;;;33.32;21.96
46506;BME280;32220;49.808;9.968;2023-04-23T12:03:06;98180.31;;;33.10;21.94
46506;BME280;32220;49.808;9.968;2023-04-23T12:05:34;98137.28;;;33.15;22.15
46506;BME280;32220;49.808;9.968;2023-04-23T12:08:06;98185.03;;;33.36;21.91
46506;BME280;32220;49.808;9.968;2023-04-23T12:10:44;98151.84;;;33.16;22.06
46506;BME280;32220;49.808;9.968;2023-04-23T12:13:13;98163.53;;;33.06;22.32
46506;BME280;32220;49.808;9.968;2023-04-23T12:15:47;98161.75;;;32.52;22.49
46506;BME280;32220;49.808;9.968;2023-04-23T12:18:16;98144.97;;;32.48;23.38
46506;BME280;32220;49.808;9.968;2023-04-23T12:20:44;98154.44;;;32.40;23.19
46506;BME280;32220;49.808;9.968;2023-04-23T12:23:12;98140.75;;;32.02;22.95
46506;BME280;32220;49.808;9.968;2023-04-23T12:25:42;98152.75;;;32.56;23.12
46506;BME280;32220;49.808;9.968;2023-04-23T12:28:10;98157.63;;;32.32;23.09
46506;BME280;32220;49.808;9.968;2023-04-23T12:30:42;98159.16;;;31.90;23.11
46506;BME280;32220;49.808;9.968;2023-04-23T12:33:10;98158.81;;;31.69;23.47
46506;BME280;32220;49.808;9.968;2023-04-23T12:35:39;98150.50;;;32.31;23.75
46506;BME280;32220;49.808;9.968;2023-04-23T12:38:07;98159.28;;;32.33;22.66
46506;BME280;32220;49.808;9.968;2023-04-23T12:40:49;98134.78;;;31.71;24.45
46506;BME280;32220;49.808;9.968;2023-04-23T12:43:16;98140.66;;;31.18;23.58
46506;BME280;32220;49.808;9.968;2023-04-23T12:45:44;98142.81;;;30.76;24.10
46506;BME280;32220;49.808;9.968;2023-04-23T12:48:12;98132.84;;;30.70;24.11
46506;BME280;32220;49.808;9.968;2023-04-23T12:50:40;98138.75;;;31.07;23.68
46506;BME280;32220;49.808;9.968;2023-04-23T12:53:07;98130.22;;;32.32;23.53
46506;BME280;32220;49.808;9.968;2023-04-23T12:55:35;98127.75;;;33.45;22.05
46506;BME280;32220;49.808;9.968;2023-04-23T12:58:06;98142.38;;;33.24;21.44
46506;BME280;32220;49.808;9.968;2023-04-23T13:00:33;98138.88;;;32.63;22.25
46506;BME280;32220;49.808;9.968;2023-04-23T13:03:01;98129.38;;;34.10;21.92
46506;BME280;32220;49.808;9.968;2023-04-23T13:05:29;98126.13;;;33.81;21.25
46506;BME280;32220;49.808;9.968;2023-04-23T13:07:57;98128.53;;;33.18;21.99
46506;BME280;32220;49.808;9.968;2023-04-23T13:10:24;98111.69;;;33.32;21.97